createdAt,value
2017-07-14T00:02:26.246Z,73.70
2017-07-14T00:04:53.838Z,73.73
2017-07-14T00:07:21.444Z,73.81
2017-07-14T00:09:49.062Z,74.36
2017-07-14T00:12:16.670Z,73.86
2017-07-14T00:14:44.306Z,72.74
2017-07-14T00:17:11.914Z,71.61
2017-07-14T00:19:39.800Z,71.20
2017-07-14T00:22:07.427Z,71.28
2017-07-14T00:24:35.068Z,71.46
2017-07-14T00:27:02.722Z,71.45
2017-07-14T00:29:30.316Z,71.61
2017-07-14T00:31:57.982Z,72.21
2017-07-14T00:34:25.590Z,72.00
2017-07-14T00:36:53.615Z,72.60
2017-07-14T00:39:21.230Z,73.17
2017-07-14T00:41:48.831Z,74.07
2017-07-14T00:44:16.473Z,73.35
2017-07-14T00:46:44.088Z,74.36
2017-07-14T00:49:12.089Z,73.79
2017-07-14T00:51:39.687Z,74.16
2017-07-14T00:54:07.281Z,74.23
2017-07-14T00:56:34.901Z,74.13
2017-07-14T00:59:02.502Z,73.09
2017-07-14T01:01:30.129Z,72.31
2017-07-14T01:03:57.728Z,71.73
2017-07-14T01:06:25.677Z,71.06
2017-07-14T01:08:53.281Z,71.25
2017-07-14T01:11:20.864Z,71.36
2017-07-14T01:13:48.520Z,71.76
2017-07-14T01:16:16.117Z,70.99
2017-07-14T01:18:44.033Z,71.05
2017-07-14T01:21:11.661Z,71.53
2017-07-14T01:23:39.256Z,70.39
2017-07-14T01:26:06.893Z,69.93
2017-07-14T01:28:34.496Z,69.93
2017-07-14T01:31:02.125Z,69.79
2017-07-14T01:33:29.723Z,69.22
2017-07-14T01:35:57.355Z,70.31
2017-07-14T01:38:24.961Z,71.37
2017-07-14T01:40:52.870Z,72.09
2017-07-14T01:43:20.481Z,73.12
2017-07-14T01:45:48.099Z,72.54
2017-07-14T01:48:15.709Z,70.72
2017-07-14T01:50:43.369Z,70.33
2017-07-14T01:53:10.992Z,70.05
2017-07-14T01:55:38.616Z,69.85
2017-07-14T01:58:06.597Z,69.87
2017-07-14T02:00:34.197Z,70.00
2017-07-14T02:03:01.794Z,70.13
2017-07-14T02:05:29.401Z,70.10
2017-07-14T02:07:56.991Z,69.95
2017-07-14T02:10:24.895Z,70.09
2017-07-14T02:12:52.522Z,69.52
2017-07-14T02:15:20.140Z,69.48
2017-07-14T02:17:47.786Z,69.83
2017-07-14T02:20:15.397Z,69.70
2017-07-14T02:22:43.001Z,69.90
2017-07-14T02:25:10.615Z,70.41
2017-07-14T02:27:38.252Z,70.67
2017-07-14T02:30:05.826Z,70.55
2017-07-14T02:32:33.433Z,70.71
2017-07-14T02:35:01.309Z,70.80
2017-07-14T02:37:28.896Z,70.96
2017-07-14T02:39:56.481Z,71.21
2017-07-14T02:42:24.087Z,71.26
2017-07-14T02:44:51.700Z,71.46
2017-07-14T02:47:19.318Z,72.04
2017-07-14T02:49:46.888Z,71.89
2017-07-14T02:52:14.877Z,72.00
2017-07-14T02:54:42.463Z,72.00
2017-07-14T02:57:10.199Z,72.03
2017-07-14T02:59:37.821Z,72.35
2017-07-14T03:02:05.436Z,72.73
2017-07-14T03:04:33.045Z,73.36
2017-07-14T03:07:00.639Z,74.25
2017-07-14T03:09:28.220Z,74.39
2017-07-14T03:11:55.868Z,74.34
2017-07-14T03:14:23.484Z,74.26
2017-07-14T03:16:51.209Z,73.65
2017-07-14T03:19:18.816Z,72.45
2017-07-14T03:21:46.812Z,72.02
2017-07-14T03:24:14.401Z,71.83
2017-07-14T03:26:41.986Z,71.59
2017-07-14T03:29:09.627Z,71.47
2017-07-14T03:31:37.207Z,71.54
2017-07-14T03:34:04.817Z,71.62
2017-07-14T03:36:32.435Z,71.61
2017-07-14T03:39:00.337Z,71.63
2017-07-14T03:41:27.942Z,72.16
2017-07-14T03:43:55.521Z,72.90
2017-07-14T03:46:23.142Z,73.12
2017-07-14T03:48:50.739Z,73.88
2017-07-14T03:51:18.405Z,74.06
2017-07-14T03:53:45.991Z,74.11
2017-07-14T03:56:13.986Z,74.00
2017-07-14T03:58:41.682Z,73.96
2017-07-14T04:01:09.271Z,74.49
2017-07-14T04:03:36.901Z,74.75
2017-07-14T04:06:04.506Z,74.80
2017-07-14T04:08:32.113Z,73.87
2017-07-14T04:10:59.718Z,73.57
2017-07-14T04:13:27.665Z,73.48
2017-07-14T04:15:55.268Z,73.73
2017-07-14T04:18:22.850Z,73.60
2017-07-14T04:20:50.492Z,73.96
2017-07-14T04:23:18.093Z,74.12
2017-07-14T04:25:46.061Z,74.30
2017-07-14T04:28:13.681Z,74.83
2017-07-14T04:30:41.277Z,75.10
2017-07-14T04:33:08.904Z,76.15
2017-07-14T04:35:36.468Z,76.23
2017-07-14T04:38:04.069Z,76.89
2017-07-14T04:40:31.663Z,76.43
2017-07-14T04:42:59.581Z,76.71
2017-07-14T04:45:27.176Z,76.77
2017-07-14T04:47:54.786Z,77.24
2017-07-14T04:50:22.387Z,77.77
2017-07-14T04:52:49.984Z,77.65
2017-07-14T04:55:17.682Z,77.29
2017-07-14T04:57:45.293Z,77.12
2017-07-14T05:00:13.233Z,77.77
2017-07-14T05:02:40.810Z,77.85
2017-07-14T05:05:08.415Z,78.00
2017-07-14T05:07:36.099Z,78.63
2017-07-14T05:10:03.696Z,78.69
2017-07-14T05:12:31.334Z,78.01
2017-07-14T05:14:58.948Z,76.76
2017-07-14T05:17:26.605Z,75.75
2017-07-14T05:19:54.237Z,74.73
2017-07-14T05:22:21.855Z,74.63
2017-07-14T05:24:49.469Z,74.79
2017-07-14T05:27:17.053Z,74.86
2017-07-14T05:29:44.933Z,74.85
2017-07-14T05:32:12.577Z,75.58
2017-07-14T05:34:40.182Z,73.92
2017-07-14T05:37:08.850Z,74.29
2017-07-14T05:39:36.430Z,73.58
2017-07-14T05:42:04.316Z,73.40
2017-07-14T05:44:31.913Z,73.03
2017-07-14T05:46:59.545Z,71.97
2017-07-14T05:49:27.279Z,72.06
2017-07-14T05:51:54.865Z,71.45
2017-07-14T05:54:22.461Z,71.48
2017-07-14T05:56:50.046Z,71.92
2017-07-14T05:59:18.060Z,70.95
2017-07-14T06:01:45.677Z,70.68
2017-07-14T06:04:14.175Z,70.16
2017-07-14T06:06:41.781Z,71.45
2017-07-14T06:09:09.414Z,71.63
2017-07-14T06:11:37.039Z,71.07
2017-07-14T06:14:04.605Z,69.81
2017-07-14T06:16:32.625Z,70.38
2017-07-14T06:19:00.230Z,67.52
2017-07-14T06:21:27.844Z,67.88
2017-07-14T06:23:55.455Z,68.01
2017-07-14T06:26:23.051Z,68.85
2017-07-14T06:28:50.948Z,70.71
2017-07-14T06:31:18.610Z,71.81
2017-07-14T06:33:46.188Z,73.22
2017-07-14T06:36:13.773Z,73.67
2017-07-14T06:38:41.374Z,75.27
2017-07-14T06:41:08.979Z,75.60
2017-07-14T06:43:36.561Z,75.46
2017-07-14T06:46:04.202Z,75.52
2017-07-14T06:48:31.811Z,75.81
2017-07-14T06:50:59.807Z,76.50
2017-07-14T06:53:27.402Z,76.30
2017-07-14T06:55:55.011Z,75.03
2017-07-14T06:58:22.624Z,74.12
2017-07-14T07:00:50.209Z,73.04
2017-07-14T07:03:18.088Z,73.14
2017-07-14T07:05:45.675Z,72.83
2017-07-14T07:08:13.260Z,70.46
2017-07-14T07:10:40.881Z,71.34
2017-07-14T07:13:08.473Z,71.17
2017-07-14T07:15:36.079Z,69.93
2017-07-14T07:18:03.676Z,70.25
2017-07-14T07:20:31.736Z,70.40
2017-07-14T07:22:59.312Z,70.70
2017-07-14T07:25:26.907Z,70.11
2017-07-14T07:27:54.526Z,69.93
2017-07-14T07:30:22.104Z,70.58
2017-07-14T07:32:49.720Z,71.79
2017-07-14T07:35:17.320Z,70.94
2017-07-14T07:37:45.333Z,70.04
2017-07-14T07:40:12.915Z,69.81
2017-07-14T07:42:40.507Z,69.93
2017-07-14T07:45:08.138Z,68.87
2017-07-14T07:47:41.308Z,64.57
2017-07-14T07:50:08.945Z,65.16
2017-07-14T07:52:36.558Z,66.90
2017-07-14T07:55:04.472Z,68.74
2017-07-14T07:57:32.068Z,67.53
2017-07-14T07:59:59.684Z,68.47
2017-07-14T08:02:27.293Z,68.17
2017-07-14T08:04:54.892Z,66.63
2017-07-14T08:07:22.808Z,66.16
2017-07-14T08:09:50.393Z,67.18
2017-07-14T08:12:17.978Z,65.33
2017-07-14T08:14:45.612Z,64.37
2017-07-14T08:17:13.194Z,64.41
2017-07-14T08:19:41.061Z,63.71
2017-07-14T08:22:08.645Z,63.50
2017-07-14T08:24:36.244Z,64.08
2017-07-14T08:27:03.969Z,63.45
2017-07-14T08:29:31.579Z,65.22
2017-07-14T08:31:59.476Z,65.08
2017-07-14T08:34:27.083Z,62.53
2017-07-14T08:36:54.757Z,63.92
2017-07-14T08:39:22.386Z,63.54
2017-07-14T08:41:49.983Z,61.49
2017-07-14T08:44:17.728Z,62.88
2017-07-14T08:46:45.344Z,62.96
2017-07-14T08:49:12.929Z,63.44
2017-07-14T08:51:40.819Z,61.85
2017-07-14T08:54:08.413Z,61.81
2017-07-14T08:56:35.998Z,61.26
2017-07-14T08:59:03.597Z,63.24
2017-07-14T09:01:31.188Z,63.02
2017-07-14T09:03:59.143Z,61.55
2017-07-14T09:06:26.731Z,59.00
2017-07-14T09:08:54.319Z,58.87
2017-07-14T09:11:21.926Z,58.19
2017-07-14T09:13:49.537Z,60.13
2017-07-14T09:16:17.430Z,59.47
2017-07-14T09:18:45.051Z,59.82
2017-07-14T09:21:12.662Z,59.31
2017-07-14T09:23:40.293Z,59.70
2017-07-14T09:26:07.869Z,58.15
2017-07-14T09:28:35.474Z,57.77
2017-07-14T09:31:03.063Z,56.41
2017-07-14T09:33:31.061Z,57.73
2017-07-14T09:35:58.666Z,56.25
2017-07-14T09:38:26.267Z,57.32
2017-07-14T09:40:53.885Z,56.84
2017-07-14T09:43:21.593Z,57.18
2017-07-14T09:45:49.576Z,56.65
2017-07-14T09:48:17.213Z,58.66
2017-07-14T09:50:44.821Z,57.22
2017-07-14T09:53:12.448Z,56.60
2017-07-14T09:55:40.049Z,53.38
2017-07-14T09:58:07.670Z,55.03
2017-07-14T10:00:35.285Z,53.58
2017-07-14T10:03:03.332Z,54.36
2017-07-14T10:05:30.946Z,52.89
2017-07-14T10:07:58.554Z,55.62
2017-07-14T10:10:26.187Z,53.05
2017-07-14T10:12:53.845Z,53.68
2017-07-14T10:15:22.977Z,55.35
2017-07-14T10:17:50.581Z,51.80
2017-07-14T10:20:18.555Z,52.75
2017-07-14T10:22:46.528Z,54.04
2017-07-14T10:25:14.148Z,52.22
2017-07-14T10:27:49.249Z,50.34
2017-07-14T10:30:16.879Z,50.44
2017-07-14T10:32:44.930Z,53.47
2017-07-14T10:35:12.537Z,55.76
2017-07-14T10:37:40.142Z,48.68
2017-07-14T10:40:08.770Z,50.58
2017-07-14T10:42:36.376Z,50.62
2017-07-14T10:45:04.126Z,50.84
2017-07-14T10:47:31.820Z,44.13
2017-07-14T10:49:59.853Z,49.00
2017-07-14T10:52:27.460Z,50.13
2017-07-14T10:54:55.055Z,47.42
2017-07-14T10:57:22.699Z,45.64
2017-07-14T10:59:50.282Z,46.45
2017-07-14T11:02:17.974Z,46.53
2017-07-14T11:04:45.685Z,44.73
2017-07-14T11:07:13.331Z,46.75
2017-07-14T11:09:40.921Z,43.60
2017-07-14T11:12:14.410Z,45.90
2017-07-14T11:14:42.164Z,42.87
2017-07-14T11:17:09.782Z,42.90
2017-07-14T11:19:37.403Z,44.47
2017-07-14T11:22:05.033Z,46.86
2017-07-14T11:24:32.640Z,43.64
2017-07-14T11:27:00.265Z,46.77
2017-07-14T11:29:27.887Z,44.23
2017-07-14T11:31:55.511Z,46.55
2017-07-14T11:34:23.114Z,45.73
2017-07-14T11:36:50.727Z,42.33
2017-07-14T11:39:18.339Z,44.65
2017-07-14T11:41:46.087Z,40.98
2017-07-14T11:44:13.700Z,43.70
2017-07-14T11:46:41.328Z,44.47
2017-07-14T11:49:08.922Z,44.34
2017-07-14T11:51:36.538Z,44.31
2017-07-14T11:54:04.442Z,43.75
2017-07-14T11:56:32.069Z,43.82
2017-07-14T11:58:59.678Z,45.80
2017-07-14T12:01:27.311Z,43.01
2017-07-14T12:03:54.993Z,45.70
2017-07-14T12:06:22.989Z,42.46
2017-07-14T12:08:50.659Z,44.29
2017-07-14T12:11:18.284Z,45.51
2017-07-14T12:13:45.918Z,45.86
2017-07-14T12:16:13.555Z,44.23
2017-07-14T12:18:41.514Z,44.70
2017-07-14T12:21:09.129Z,45.96
2017-07-14T12:23:36.939Z,45.26
2017-07-14T12:26:04.573Z,44.51
2017-07-14T12:28:32.219Z,46.21
2017-07-14T12:30:59.864Z,47.57
2017-07-14T12:33:27.467Z,46.67
2017-07-14T12:35:55.412Z,47.53
2017-07-14T12:38:23.019Z,47.39
2017-07-14T12:40:50.716Z,49.97
2017-07-14T12:43:18.403Z,49.76
2017-07-14T12:45:46.075Z,49.85
2017-07-14T12:48:14.664Z,50.43
2017-07-14T12:50:42.275Z,51.25
2017-07-14T12:53:10.345Z,50.93
2017-07-14T12:55:37.934Z,51.96
2017-07-14T12:58:05.561Z,51.40
2017-07-14T13:00:33.177Z,50.66
2017-07-14T13:03:00.812Z,52.03
2017-07-14T13:05:28.831Z,51.99
2017-07-14T13:07:56.425Z,51.94
2017-07-14T13:10:24.027Z,49.61
2017-07-14T13:12:51.662Z,48.63
2017-07-14T13:15:19.253Z,47.70
2017-07-14T13:17:46.887Z,47.21
2017-07-14T13:20:14.507Z,46.37
2017-07-14T13:22:42.570Z,45.05
2017-07-14T13:25:10.190Z,45.50
2017-07-14T13:27:37.777Z,46.42
2017-07-14T13:30:05.429Z,47.29
2017-07-14T13:32:33.079Z,46.36
2017-07-14T13:35:01.052Z,46.94
2017-07-14T13:37:28.648Z,48.19
2017-07-14T13:39:56.291Z,47.15
2017-07-14T13:42:23.939Z,46.28
2017-07-14T13:44:51.541Z,47.52
2017-07-14T13:47:19.454Z,49.27
2017-07-14T13:49:49.245Z,47.17
2017-07-14T13:52:16.845Z,46.69
2017-07-14T13:54:44.565Z,47.27
2017-07-14T13:57:12.187Z,48.64
2017-07-14T13:59:40.113Z,49.67
2017-07-14T14:02:14.484Z,48.86
2017-07-14T14:04:42.487Z,50.47
2017-07-14T14:07:10.097Z,50.15
2017-07-14T14:09:37.717Z,49.96
2017-07-14T14:12:05.394Z,49.16
2017-07-14T14:14:33.031Z,48.87
2017-07-14T14:17:00.949Z,50.52
2017-07-14T14:19:28.575Z,49.25
2017-07-14T14:21:56.195Z,49.00
2017-07-14T14:24:23.842Z,48.88
2017-07-14T14:26:51.461Z,47.21
2017-07-14T14:29:19.370Z,46.11
2017-07-14T14:31:46.975Z,45.20
2017-07-14T14:34:14.577Z,41.92
2017-07-14T14:36:42.210Z,40.41
2017-07-14T14:39:10.072Z,40.32
2017-07-14T14:41:38.030Z,39.50
2017-07-14T14:44:05.693Z,41.07
2017-07-14T14:46:33.358Z,38.65
2017-07-14T14:49:01.017Z,37.40
2017-07-14T14:51:28.616Z,41.05
2017-07-14T14:53:56.233Z,38.85
2017-07-14T14:56:23.813Z,38.61
2017-07-14T14:58:51.688Z,37.37
2017-07-14T15:01:19.357Z,37.25
2017-07-14T15:03:46.940Z,38.91
2017-07-14T15:06:14.552Z,36.49
2017-07-14T15:08:42.159Z,38.08
2017-07-14T15:11:10.114Z,36.44
2017-07-14T15:13:37.740Z,35.26
2017-07-14T15:16:05.364Z,33.34
2017-07-14T15:18:33.009Z,35.57
2017-07-14T15:21:00.609Z,35.40
2017-07-14T15:23:28.510Z,32.70
2017-07-14T15:25:56.148Z,33.98
2017-07-14T15:28:23.753Z,33.77
2017-07-14T15:30:51.337Z,33.70
2017-07-14T15:33:18.921Z,35.53
2017-07-14T15:35:46.560Z,36.10
2017-07-14T15:38:14.178Z,34.38
2017-07-14T15:40:42.207Z,36.23
2017-07-14T15:43:09.920Z,36.97
2017-07-14T15:45:37.547Z,38.25
2017-07-14T15:48:05.194Z,37.46
2017-07-14T15:50:32.808Z,34.90
2017-07-14T15:53:00.887Z,35.12
2017-07-14T15:55:28.503Z,35.16
2017-07-14T15:57:56.107Z,36.54
2017-07-14T16:00:23.726Z,37.37
2017-07-14T16:02:51.349Z,38.52
2017-07-14T16:05:18.995Z,39.99
2017-07-14T16:07:46.609Z,39.68
2017-07-14T16:10:14.509Z,41.38
2017-07-14T16:12:42.274Z,41.80
2017-07-14T16:15:09.902Z,42.30
2017-07-14T16:17:37.555Z,43.44
2017-07-14T16:20:05.166Z,41.46
2017-07-14T16:22:32.808Z,42.52
2017-07-14T16:25:00.461Z,43.28
2017-07-14T16:27:28.062Z,44.32
2017-07-14T16:29:56.097Z,44.52
2017-07-14T16:32:23.681Z,45.79
2017-07-14T16:34:51.278Z,45.99
2017-07-14T16:37:20.317Z,49.36
2017-07-14T16:39:47.934Z,49.44
2017-07-14T16:42:15.537Z,51.07
2017-07-14T16:44:43.643Z,50.77
2017-07-14T16:47:13.357Z,51.53
2017-07-14T16:49:40.981Z,51.75
2017-07-14T16:52:08.589Z,51.74
2017-07-14T16:54:36.167Z,51.22
2017-07-14T16:57:03.779Z,51.81
2017-07-14T16:59:31.383Z,52.89
2017-07-14T17:01:59.307Z,54.19
2017-07-14T17:04:26.895Z,54.07
2017-07-14T17:06:54.510Z,54.61
2017-07-14T17:09:22.210Z,56.47
2017-07-14T17:11:49.809Z,57.05
2017-07-14T17:14:17.693Z,58.45
2017-07-14T17:16:45.774Z,58.61
2017-07-14T17:19:13.378Z,58.64
2017-07-14T17:21:40.999Z,58.48
2017-07-14T17:24:08.665Z,58.69
2017-07-14T17:26:36.296Z,60.52
2017-07-14T17:29:03.897Z,60.04
2017-07-14T17:31:31.885Z,62.00
2017-07-14T17:33:59.491Z,63.59
2017-07-14T17:36:27.085Z,64.48
2017-07-14T17:38:54.798Z,65.51
2017-07-14T17:41:22.415Z,67.10
2017-07-14T17:43:50.332Z,68.44
2017-07-14T17:46:18.022Z,68.78
2017-07-14T17:48:45.625Z,68.78
2017-07-14T17:51:13.262Z,69.06
2017-07-14T17:53:40.861Z,68.26
2017-07-14T17:56:08.507Z,70.21
2017-07-14T17:58:36.209Z,69.31
2017-07-14T18:01:04.131Z,70.09
2017-07-14T18:03:31.737Z,70.57
2017-07-14T18:05:59.328Z,71.14
2017-07-14T18:08:26.952Z,72.35
2017-07-14T18:10:54.557Z,71.86
2017-07-14T18:13:22.193Z,72.08
2017-07-14T18:15:49.825Z,71.45
2017-07-14T18:18:17.914Z,71.00
2017-07-14T18:20:45.533Z,72.07
2017-07-14T18:23:13.250Z,72.58
2017-07-14T18:25:40.933Z,72.78
2017-07-14T18:28:08.523Z,73.20
2017-07-14T18:30:36.409Z,73.76
2017-07-14T18:33:04.033Z,73.62
2017-07-14T18:35:31.921Z,73.58
2017-07-14T18:37:59.579Z,73.69
2017-07-14T18:40:27.210Z,74.38
2017-07-14T18:42:54.860Z,74.05
2017-07-14T18:45:22.528Z,73.73
2017-07-14T18:47:50.484Z,73.99
2017-07-14T18:50:18.080Z,73.96
2017-07-14T18:52:45.785Z,74.12
2017-07-14T18:55:13.376Z,73.89
2017-07-14T18:57:41.020Z,74.18
2017-07-14T19:00:08.920Z,74.37
2017-07-14T19:02:36.545Z,74.65
2017-07-14T19:05:04.174Z,74.69
2017-07-14T19:07:31.831Z,74.77
2017-07-14T19:09:59.476Z,74.97
2017-07-14T19:12:29.207Z,75.07
2017-07-14T19:14:56.820Z,75.55
2017-07-14T19:17:24.723Z,76.04
2017-07-14T19:19:52.305Z,76.16
2017-07-14T19:22:20.013Z,76.38
2017-07-14T19:24:47.614Z,76.78
2017-07-14T19:27:15.220Z,76.74
2017-07-14T19:29:42.846Z,77.03
2017-07-14T19:32:10.445Z,76.95
2017-07-14T19:34:38.471Z,77.02
2017-07-14T19:37:06.063Z,77.05
2017-07-14T19:39:34.027Z,76.72
2017-07-14T19:42:02.738Z,76.66
2017-07-14T19:44:30.365Z,76.49
2017-07-14T19:46:58.266Z,76.82
2017-07-14T19:49:25.878Z,76.71
2017-07-14T19:51:53.479Z,76.51
2017-07-14T19:54:21.090Z,76.58
2017-07-14T19:56:48.696Z,76.24
2017-07-14T19:59:16.324Z,76.38
2017-07-14T20:01:44.065Z,76.56
2017-07-14T20:04:12.022Z,76.59
2017-07-14T20:06:39.636Z,76.69
2017-07-14T20:09:07.245Z,77.09
2017-07-14T20:11:34.913Z,77.27
2017-07-14T20:14:02.597Z,77.64
2017-07-14T20:16:30.501Z,77.36
2017-07-14T20:18:58.135Z,77.99
2017-07-14T20:21:25.737Z,78.49
2017-07-14T20:23:53.401Z,78.73
2017-07-14T20:26:21.148Z,78.68
2017-07-14T20:28:48.887Z,78.55
2017-07-14T20:31:16.457Z,78.67
2017-07-14T20:33:44.421Z,79.01
2017-07-14T20:36:12.056Z,79.16
2017-07-14T20:38:39.647Z,79.34
2017-07-14T20:41:07.307Z,79.17
2017-07-14T20:43:34.916Z,79.21
2017-07-14T20:46:02.967Z,79.60
2017-07-14T20:48:30.592Z,79.63
2017-07-14T20:50:58.303Z,79.68
2017-07-14T20:53:25.949Z,80.15
2017-07-14T20:55:53.557Z,80.59
2017-07-14T20:58:21.504Z,80.67
2017-07-14T21:00:49.110Z,80.92
2017-07-14T21:03:16.697Z,81.45
2017-07-14T21:05:44.335Z,81.92
2017-07-14T21:08:12.261Z,82.62
2017-07-14T21:10:39.897Z,82.48
2017-07-14T21:13:07.634Z,82.42
2017-07-14T21:15:35.520Z,82.46
2017-07-14T21:18:03.107Z,82.71
2017-07-14T21:20:30.704Z,82.79
2017-07-14T21:22:58.362Z,82.96
2017-07-14T21:25:26.049Z,83.24
2017-07-14T21:27:54.147Z,82.88
2017-07-14T21:30:21.765Z,83.06
2017-07-14T21:32:49.397Z,83.17
2017-07-14T21:35:17.015Z,83.45
2017-07-14T21:37:44.620Z,83.85
2017-07-14T21:40:12.268Z,84.33
2017-07-14T21:42:40.793Z,84.78
2017-07-14T21:45:08.683Z,85.01
2017-07-14T21:47:36.304Z,84.95
2017-07-14T21:50:03.938Z,85.30
2017-07-14T21:52:31.606Z,85.66
2017-07-14T21:55:00.306Z,85.65
2017-07-14T21:57:28.311Z,85.83
2017-07-14T21:59:55.935Z,85.98
2017-07-14T22:02:23.541Z,85.75
2017-07-14T22:04:51.152Z,85.49
2017-07-14T22:07:18.738Z,85.15
2017-07-14T22:09:46.353Z,84.91
2017-07-14T22:12:14.027Z,84.89
2017-07-14T22:14:41.975Z,84.68
2017-07-14T22:17:09.574Z,84.49
2017-07-14T22:19:37.169Z,83.76
2017-07-14T22:22:04.768Z,83.38
2017-07-14T22:24:32.368Z,83.56
2017-07-14T22:26:59.996Z,83.72
2017-07-14T22:29:27.616Z,83.54
2017-07-14T22:31:55.591Z,83.52
2017-07-14T22:34:23.207Z,83.48
2017-07-14T22:36:50.815Z,83.52
2017-07-14T22:39:18.430Z,82.81
2017-07-14T22:41:46.012Z,82.74
2017-07-14T22:44:13.943Z,83.03
2017-07-14T22:46:41.555Z,83.19
2017-07-14T22:49:09.156Z,83.16
2017-07-14T22:51:36.798Z,83.53
2017-07-14T22:54:04.416Z,83.85
2017-07-14T22:56:32.013Z,83.67
2017-07-14T22:58:59.589Z,83.57
2017-07-14T23:01:27.484Z,83.29
2017-07-14T23:03:55.072Z,83.51
2017-07-14T23:06:22.675Z,83.21
2017-07-14T23:08:50.274Z,82.58
2017-07-14T23:11:17.854Z,82.63
2017-07-14T23:13:45.438Z,83.33
2017-07-14T23:16:13.037Z,83.03
2017-07-14T23:18:40.629Z,82.85
2017-07-14T23:21:08.645Z,83.53
2017-07-14T23:23:36.362Z,83.53
2017-07-14T23:26:03.943Z,83.76
2017-07-14T23:28:32.089Z,83.08
2017-07-14T23:30:59.674Z,84.08
2017-07-14T23:33:27.277Z,84.41
2017-07-14T23:35:54.913Z,84.09
2017-07-14T23:38:22.511Z,85.19
2017-07-14T23:40:50.424Z,86.50
2017-07-14T23:43:18.035Z,87.36
2017-07-14T23:45:45.732Z,87.48
2017-07-14T23:48:13.349Z,87.75
2017-07-14T23:50:40.989Z,88.95
2017-07-14T23:53:08.633Z,88.83
2017-07-14T23:55:36.222Z,88.50
2017-07-14T23:58:04.120Z,88.52
